Saundersville, North Dakota
Current Conditions -  °F | °C
As of 3:15 PM on Sunday 23 Nov 2014 (Local Time) from K5H4 Reporting Station
Light Snow Light Snow  
Wind Chill:   Ceiling: 1200
Heat Index: 18°   Visibility: 2mi
Dew Point: 16°   Wind: 21mph
Humidity: 93%   Direction: 330°NNW
Pressure: 29.57"   Gusts: 32mph
Location:  47.7822°N, 99.8441°W
Report Text: K5H4 232115Z AUTO 33018G28KT 2SM -SN SCT001 BKN012 OVC017 M08/M09 A2957 RMK AO2 P0001
Loading
Personal Weather Stations






























Interactive Weather Map New forecast layout! Learn more

10-Day Weather Forecast

Advertisements
Track Severe Weather on mobile